Provincetown II — WYQ8368 — position and weather

sailwx.info

Track history (hours):
 
Tides and Currents Weather Stations Pressure Air Temp Water Temp Dewpoint Dewpoint Depression Visibility Wind Speed Wind Dir Waves Ship Positions

Provincetown II

Owner: BAY STATE MARINE CORP, BOSTON, MA. More information available from US FCC via Universal Licensing System and Coast Guard Vessel Documentation Center.

Last reported at 2017-Sep-17 18:03 UTC. Time now 2017-Sep-20 20:02 UTC.
Position N 42°21' W 071°02'.

Length 64 m; draft 2 m.

Type: Passenger vessel. MMSI: 376325010.

Date/timePositionNaut miles runAvg speedWind from/ knotsBaromVisibWave heightAir tempDewpointWater temp
2017-Sep-17 18:03N 42°21' W 071°02'0 2.4
2017-Sep-17 18:00N 42°21' W 071°02'3 0.9
2017-Sep-17 14:46N 42°19' W 070°59'2 7.4
2017-Sep-17 14:30N 42°21' W 071°01'1 1.9
2017-Sep-17 13:57N 42°21' W 071°02'0 0.0
2017-Sep-17 13:27N 42°21' W 071°02'0 0.0
2017-Sep-17 02:36N 42°21' W 071°02'0 0.0
2017-Sep-17 02:30N 42°21' W 071°02'1 2.2
2017-Sep-17 02:00N 42°21' W 071°01'2 4.6
2017-Sep-17 01:30N 42°20' W 070°58'2 3.4
2017-Sep-17 01:01N 42°19' W 070°56'1 2.8
2017-Sep-17 00:30N 42°20' W 070°57'2 3.6
2017-Sep-17 00:00N 42°20' W 070°60'2 4.5
2017-Sep-16 23:30N 42°21' W 071°02'0 0.0
2017-Sep-16 02:17N 42°21' W 071°02'2 5.6
2017-Sep-16 02:01N 42°20' W 071°00'2 3.9
2017-Sep-16 01:30N 42°20' W 070°58'0 1.0
2017-Sep-16 01:00N 42°20' W 070°58'0 0.8
2017-Sep-16 00:30N 42°20' W 070°58'2 4.9
2017-Sep-16 00:00N 42°21' W 071°01'  
2017-Sep-09 19:56N 42°21' W 071°02'2 3.6
2017-Sep-09 19:30N 42°21' W 071°01'3 5.6
2017-Sep-09 19:00N 42°20' W 070°57'2 4.2
2017-Sep-09 18:30N 42°19' W 070°54'2 4.4
2017-Sep-09 18:00N 42°20' W 070°57'3 5.3
2017-Sep-09 17:30N 42°20' W 071°01'2 3.1
2017-Sep-09 17:00N 42°21' W 071°02'0 0.0
2017-Sep-09 16:30N 42°21' W 071°02'0 0.1
2017-Sep-09 16:00N 42°21' W 071°02'0 0.1
2017-Sep-09 15:30N 42°21' W 071°02'0 0.0
2017-Sep-09 02:21N 42°21' W 071°02'1 3.8
2017-Sep-09 02:00N 42°21' W 071°01'2 3.3
2017-Sep-09 01:30N 42°20' W 070°59'1 1.9
2017-Sep-09 01:00N 42°20' W 071°00'3 5.2
2017-Sep-09 00:30N 42°20' W 070°56'3 5.6
2017-Sep-09 00:00N 42°20' W 071°00'2 3.7
2017-Sep-08 23:30N 42°21' W 071°02'0 0.0
2017-Sep-08 23:00N 42°21' W 071°02'0 0.0
2017-Sep-08 22:30N 42°21' W 071°02'0 0.0
2017-Sep-08 19:36N 42°21' W 071°02'0 0.0
2017-Sep-08 19:30N 42°21' W 071°02'0 0.0
2017-Sep-08 19:00N 42°21' W 071°02'0 0.0
2017-Sep-08 18:30N 42°21' W 071°02'2 5.1
2017-Sep-08 18:00N 42°20' W 070°59'3 5.1
2017-Sep-08 17:30N 42°20' W 070°56'2 4.3
2017-Sep-08 17:01N 42°20' W 070°59'3 5.8
2017-Sep-08 16:30N 42°21' W 071°02'0 0.2
2017-Sep-08 15:59N 42°21' W 071°02'0 0.0
2017-Sep-08 15:26N 42°21' W 071°02'  
Track history (hours):
 
Tides and Currents Weather Stations Pressure Air Temp Water Temp Dewpoint Dewpoint Depression Visibility Wind Speed Wind Dir Waves Ship Positions

Provincetown II

Owner: BAY STATE MARINE CORP, BOSTON, MA. More information available from US FCC via Universal Licensing System and Coast Guard Vessel Documentation Center.

Last reported at 2017-Sep-17 18:03 UTC. Time now 2017-Sep-20 20:02 UTC.
Position N 42°21' W 071°02'.

Length 64 m; draft 2 m.

Type: Passenger vessel. MMSI: 376325010.

Date/timePositionNaut miles runAvg speedWind from/ knotsBaromVisibWave heightAir tempDewpointWater temp
2017-Sep-17 18:03N 42°21' W 071°02'0 2.4
2017-Sep-17 18:00N 42°21' W 071°02'3 0.9
2017-Sep-17 14:46N 42°19' W 070°59'2 7.4
2017-Sep-17 14:30N 42°21' W 071°01'1 1.9
2017-Sep-17 13:57N 42°21' W 071°02'0 0.0
2017-Sep-17 13:27N 42°21' W 071°02'0 0.0
2017-Sep-17 02:36N 42°21' W 071°02'0 0.0
2017-Sep-17 02:30N 42°21' W 071°02'1 2.2
2017-Sep-17 02:00N 42°21' W 071°01'2 4.6
2017-Sep-17 01:30N 42°20' W 070°58'2 3.4
2017-Sep-17 01:01N 42°19' W 070°56'1 2.8
2017-Sep-17 00:30N 42°20' W 070°57'2 3.6
2017-Sep-17 00:00N 42°20' W 070°60'2 4.5
2017-Sep-16 23:30N 42°21' W 071°02'0 0.0
2017-Sep-16 02:17N 42°21' W 071°02'2 5.6
2017-Sep-16 02:01N 42°20' W 071°00'2 3.9
2017-Sep-16 01:30N 42°20' W 070°58'0 1.0
2017-Sep-16 01:00N 42°20' W 070°58'0 0.8
2017-Sep-16 00:30N 42°20' W 070°58'2 4.9
2017-Sep-16 00:00N 42°21' W 071°01'  
2017-Sep-09 19:56N 42°21' W 071°02'2 3.6
2017-Sep-09 19:30N 42°21' W 071°01'3 5.6
2017-Sep-09 19:00N 42°20' W 070°57'2 4.2
2017-Sep-09 18:30N 42°19' W 070°54'2 4.4
2017-Sep-09 18:00N 42°20' W 070°57'3 5.3
2017-Sep-09 17:30N 42°20' W 071°01'2 3.1
2017-Sep-09 17:00N 42°21' W 071°02'0 0.0
2017-Sep-09 16:30N 42°21' W 071°02'0 0.1
2017-Sep-09 16:00N 42°21' W 071°02'0 0.1
2017-Sep-09 15:30N 42°21' W 071°02'0 0.0
2017-Sep-09 02:21N 42°21' W 071°02'1 3.8
2017-Sep-09 02:00N 42°21' W 071°01'2 3.3
2017-Sep-09 01:30N 42°20' W 070°59'1 1.9
2017-Sep-09 01:00N 42°20' W 071°00'3 5.2
2017-Sep-09 00:30N 42°20' W 070°56'3 5.6
2017-Sep-09 00:00N 42°20' W 071°00'2 3.7
2017-Sep-08 23:30N 42°21' W 071°02'0 0.0
2017-Sep-08 23:00N 42°21' W 071°02'0 0.0
2017-Sep-08 22:30N 42°21' W 071°02'0 0.0
2017-Sep-08 19:36N 42°21' W 071°02'0 0.0
2017-Sep-08 19:30N 42°21' W 071°02'0 0.0
2017-Sep-08 19:00N 42°21' W 071°02'0 0.0
2017-Sep-08 18:30N 42°21' W 071°02'2 5.1
2017-Sep-08 18:00N 42°20' W 070°59'3 5.1
2017-Sep-08 17:30N 42°20' W 070°56'2 4.3
2017-Sep-08 17:01N 42°20' W 070°59'3 5.8
2017-Sep-08 16:30N 42°21' W 071°02'0 0.2
2017-Sep-08 15:59N 42°21' W 071°02'0 0.0
2017-Sep-08 15:26N 42°21' W 071°02'  

Dump ship's entire track history